Portada
METAR-TAF:

METAR-TAF

Aeropuertos :

Aeropuerto Internacional de Harbin

Harbin, China

latitud: 45-45N, longitud: 126-46E, altitud: 143 m

Observación

El informe se hizo hace 28 minutos, a las 03:00 UTC
Viento 12 kt del sur
Temperatura 14°C
Humedad 55%
Presión 1014 hPa
Visibilidad: 6000 m
Nubes dispersas a una altura de 3300 ft

METAR: ZYHB 220300Z 19006MPS 6000 SCT033 14/05 Q1014 NOSIG

Hora: 11:28 (03:28 UTC)

Pronóstico

El informe se hizo hace 8 horas y 23 minutos, a las 19:05 UTC
Pronóstico válido del 22 a las 00 UTC al 22 a las 24 UTC
Viento 8 kt del sur
Visibilidad: 5000 m
Escasas nubes a una altura de 3300 ft
humo

TAF: ZYHB 211905Z 2200/2224 18004MPS 5000 FU FEW033 TX16/2206Z TN05/2221Z

Observaciones y pronósticos meteorológicos de más de 4000 aeropuertos (mensajes METAR y TAF).

Los puntos amarillos y rojos representan las estaciones disponibles.

Ponga el ratón en el punto deseado para ver el nombre de la estación.

Haga clic para ver las observaciones y los pronósticos meteorológicos.

Para cambiar el mapa : haga clic en los botones verdes con una cruz de color negro para hacer un zoom, en el botón verde con un guión para alejar o en las flechas verdes para mapas adyacentes.


METAR-TAF: